sensor_id;sensor_type;location;lat;lon;timestamp;P1;durP1;ratioP1;P2;durP2;ratioP2
49590;SDS011;35496;-21.974;-46.800;2024-03-02T00:00:29;12.13;;;6.30;;
49590;SDS011;35496;-21.974;-46.800;2024-03-02T00:02:55;13.93;;;5.90;;
49590;SDS011;35496;-21.974;-46.800;2024-03-02T00:05:22;17.33;;;9.02;;
49590;SDS011;35496;-21.974;-46.800;2024-03-02T00:07:53;11.75;;;7.10;;
49590;SDS011;35496;-21.974;-46.800;2024-03-02T00:10:25;9.65;;;6.32;;
49590;SDS011;35496;-21.974;-46.800;2024-03-02T00:12:57;10.40;;;5.63;;
49590;SDS011;35496;-21.974;-46.800;2024-03-02T00:17:56;8.82;;;5.97;;
49590;SDS011;35496;-21.974;-46.800;2024-03-02T00:20:23;9.68;;;6.47;;
49590;SDS011;35496;-21.974;-46.800;2024-03-02T00:23:01;4.28;;;3.67;;
49590;SDS011;35496;-21.974;-46.800;2024-03-02T00:30:52;5.13;;;3.20;;
49590;SDS011;35496;-21.974;-46.800;2024-03-02T00:33:27;8.07;;;4.65;;
49590;SDS011;35496;-21.974;-46.800;2024-03-02T00:36:04;21.70;;;9.10;;
49590;SDS011;35496;-21.974;-46.800;2024-03-02T00:38:32;15.75;;;5.53;;
49590;SDS011;35496;-21.974;-46.800;2024-03-02T00:41:00;5.20;;;3.63;;
49590;SDS011;35496;-21.974;-46.800;2024-03-02T00:46:12;3.97;;;3.40;;
49590;SDS011;35496;-21.974;-46.800;2024-03-02T00:48:44;4.55;;;4.15;;
49590;SDS011;35496;-21.974;-46.800;2024-03-02T00:51:16;4.20;;;3.78;;
49590;SDS011;35496;-21.974;-46.800;2024-03-02T00:53:43;11.45;;;5.43;;
49590;SDS011;35496;-21.974;-46.800;2024-03-02T00:56:10;5.72;;;4.40;;
49590;SDS011;35496;-21.974;-46.800;2024-03-02T00:58:38;9.38;;;4.32;;
49590;SDS011;35496;-21.974;-46.800;2024-03-02T01:01:05;3.30;;;2.97;;
49590;SDS011;35496;-21.974;-46.800;2024-03-02T01:03:33;4.90;;;2.97;;
49590;SDS011;35496;-21.974;-46.800;2024-03-02T01:06:00;6.60;;;3.25;;
49590;SDS011;35496;-21.974;-46.800;2024-03-02T01:08:27;3.63;;;3.30;;
49590;SDS011;35496;-21.974;-46.800;2024-03-02T01:10:54;5.07;;;4.63;;
49590;SDS011;35496;-21.974;-46.800;2024-03-02T01:13:21;6.88;;;4.30;;
49590;SDS011;35496;-21.974;-46.800;2024-03-02T01:15:49;5.20;;;3.13;;
49590;SDS011;35496;-21.974;-46.800;2024-03-02T01:18:15;3.38;;;2.80;;
49590;SDS011;35496;-21.974;-46.800;2024-03-02T01:20:42;5.13;;;3.05;;
49590;SDS011;35496;-21.974;-46.800;2024-03-02T01:23:09;3.35;;;3.05;;
49590;SDS011;35496;-21.974;-46.800;2024-03-02T01:25:35;4.03;;;3.72;;
49590;SDS011;35496;-21.974;-46.800;2024-03-02T01:28:02;4.30;;;3.45;;
49590;SDS011;35496;-21.974;-46.800;2024-03-02T01:30:29;4.65;;;4.18;;
49590;SDS011;35496;-21.974;-46.800;2024-03-02T01:32:56;20.77;;;4.32;;
49590;SDS011;35496;-21.974;-46.800;2024-03-02T01:35:24;5.85;;;4.22;;
49590;SDS011;35496;-21.974;-46.800;2024-03-02T01:37:53;3.35;;;3.05;;
49590;SDS011;35496;-21.974;-46.800;2024-03-02T01:40:20;5.88;;;3.20;;
49590;SDS011;35496;-21.974;-46.800;2024-03-02T01:42:47;3.35;;;2.78;;
49590;SDS011;35496;-21.974;-46.800;2024-03-02T01:45:13;5.93;;;3.25;;
49590;SDS011;35496;-21.974;-46.800;2024-03-02T01:47:39;9.95;;;4.20;;
49590;SDS011;35496;-21.974;-46.800;2024-03-02T01:50:07;4.47;;;3.20;;
49590;SDS011;35496;-21.974;-46.800;2024-03-02T01:52:34;3.20;;;3.00;;
49590;SDS011;35496;-21.974;-46.800;2024-03-02T01:55:01;3.10;;;2.90;;
49590;SDS011;35496;-21.974;-46.800;2024-03-02T01:57:27;4.00;;;3.00;;
49590;SDS011;35496;-21.974;-46.800;2024-03-02T01:59:54;5.60;;;3.88;;
49590;SDS011;35496;-21.974;-46.800;2024-03-02T02:02:20;3.85;;;3.35;;
49590;SDS011;35496;-21.974;-46.800;2024-03-02T02:04:47;3.80;;;3.40;;
49590;SDS011;35496;-21.974;-46.800;2024-03-02T02:07:13;3.00;;;2.70;;
49590;SDS011;35496;-21.974;-46.800;2024-03-02T02:09:43;7.63;;;3.90;;
49590;SDS011;35496;-21.974;-46.800;2024-03-02T02:12:10;5.45;;;2.90;;
49590;SDS011;35496;-21.974;-46.800;2024-03-02T02:14:36;7.40;;;4.28;;
49590;SDS011;35496;-21.974;-46.800;2024-03-02T02:17:05;4.93;;;4.10;;
49590;SDS011;35496;-21.974;-46.800;2024-03-02T02:19:32;4.60;;;3.10;;
49590;SDS011;35496;-21.974;-46.800;2024-03-02T02:21:58;3.65;;;3.13;;
49590;SDS011;35496;-21.974;-46.800;2024-03-02T02:24:25;6.45;;;3.58;;
49590;SDS011;35496;-21.974;-46.800;2024-03-02T02:26:51;3.83;;;3.53;;
49590;SDS011;35496;-21.974;-46.800;2024-03-02T02:29:18;4.75;;;3.50;;
49590;SDS011;35496;-21.974;-46.800;2024-03-02T02:31:44;9.77;;;4.47;;
49590;SDS011;35496;-21.974;-46.800;2024-03-02T02:34:11;4.05;;;3.63;;
49590;SDS011;35496;-21.974;-46.800;2024-03-02T02:36:38;14.00;;;4.70;;
49590;SDS011;35496;-21.974;-46.800;2024-03-02T02:39:10;4.45;;;3.90;;
49590;SDS011;35496;-21.974;-46.800;2024-03-02T02:41:37;4.80;;;4.40;;
49590;SDS011;35496;-21.974;-46.800;2024-03-02T02:44:04;4.22;;;3.35;;
49590;SDS011;35496;-21.974;-46.800;2024-03-02T02:46:31;3.33;;;3.05;;
49590;SDS011;35496;-21.974;-46.800;2024-03-02T02:48:57;5.88;;;3.72;;
49590;SDS011;35496;-21.974;-46.800;2024-03-02T02:51:24;4.53;;;4.13;;
49590;SDS011;35496;-21.974;-46.800;2024-03-02T02:53:53;11.35;;;4.97;;
49590;SDS011;35496;-21.974;-46.800;2024-03-02T02:56:20;9.10;;;4.75;;
49590;SDS011;35496;-21.974;-46.800;2024-03-02T02:58:46;7.97;;;4.65;;
49590;SDS011;35496;-21.974;-46.800;2024-03-02T03:01:13;6.85;;;4.10;;
49590;SDS011;35496;-21.974;-46.800;2024-03-02T03:03:42;5.05;;;3.90;;
49590;SDS011;35496;-21.974;-46.800;2024-03-02T03:06:09;4.55;;;4.15;;
49590;SDS011;35496;-21.974;-46.800;2024-03-02T03:08:36;4.93;;;4.43;;
49590;SDS011;35496;-21.974;-46.800;2024-03-02T03:11:03;5.72;;;4.15;;
49590;SDS011;35496;-21.974;-46.800;2024-03-02T03:13:30;5.43;;;4.93;;
49590;SDS011;35496;-21.974;-46.800;2024-03-02T03:15:58;5.35;;;4.85;;
49590;SDS011;35496;-21.974;-46.800;2024-03-02T03:18:24;4.70;;;4.30;;
49590;SDS011;35496;-21.974;-46.800;2024-03-02T03:20:51;6.57;;;5.10;;
49590;SDS011;35496;-21.974;-46.800;2024-03-02T03:23:17;4.32;;;3.92;;
49590;SDS011;35496;-21.974;-46.800;2024-03-02T03:25:44;4.38;;;4.07;;
49590;SDS011;35496;-21.974;-46.800;2024-03-02T03:28:10;4.90;;;4.43;;
49590;SDS011;35496;-21.974;-46.800;2024-03-02T03:30:37;4.95;;;3.25;;
49590;SDS011;35496;-21.974;-46.800;2024-03-02T03:33:04;4.03;;;3.67;;
49590;SDS011;35496;-21.974;-46.800;2024-03-02T03:35:31;6.60;;;4.55;;
49590;SDS011;35496;-21.974;-46.800;2024-03-02T03:37:58;7.53;;;4.13;;
49590;SDS011;35496;-21.974;-46.800;2024-03-02T03:40:25;4.97;;;4.53;;
49590;SDS011;35496;-21.974;-46.800;2024-03-02T03:42:51;6.10;;;4.57;;
49590;SDS011;35496;-21.974;-46.800;2024-03-02T03:45:18;6.18;;;4.90;;
49590;SDS011;35496;-21.974;-46.800;2024-03-02T03:47:45;9.10;;;4.95;;
49590;SDS011;35496;-21.974;-46.800;2024-03-02T03:50:12;6.68;;;4.90;;
49590;SDS011;35496;-21.974;-46.800;2024-03-02T03:52:40;10.10;;;6.25;;
49590;SDS011;35496;-21.974;-46.800;2024-03-02T03:55:07;8.13;;;5.28;;
49590;SDS011;35496;-21.974;-46.800;2024-03-02T03:57:34;7.80;;;6.88;;
49590;SDS011;35496;-21.974;-46.800;2024-03-02T04:00:01;7.55;;;5.75;;
49590;SDS011;35496;-21.974;-46.800;2024-03-02T04:02:27;10.23;;;4.53;;
49590;SDS011;35496;-21.974;-46.800;2024-03-02T04:04:54;7.72;;;5.45;;
49590;SDS011;35496;-21.974;-46.800;2024-03-02T04:07:20;9.55;;;5.90;;
49590;SDS011;35496;-21.974;-46.800;2024-03-02T04:09:47;9.93;;;5.47;;
49590;SDS011;35496;-21.974;-46.800;2024-03-02T04:12:14;6.82;;;5.07;;
49590;SDS011;35496;-21.974;-46.800;2024-03-02T04:14:40;7.53;;;4.60;;
49590;SDS011;35496;-21.974;-46.800;2024-03-02T04:17:07;8.73;;;5.43;;
49590;SDS011;35496;-21.974;-46.800;2024-03-02T04:19:35;6.95;;;5.53;;
49590;SDS011;35496;-21.974;-46.800;2024-03-02T04:22:02;7.50;;;6.35;;
49590;SDS011;35496;-21.974;-46.800;2024-03-02T04:24:29;10.18;;;7.53;;
49590;SDS011;35496;-21.974;-46.800;2024-03-02T04:26:57;12.35;;;8.30;;
49590;SDS011;35496;-21.974;-46.800;2024-03-02T04:29:24;11.60;;;7.53;;
49590;SDS011;35496;-21.974;-46.800;2024-03-02T04:31:50;7.97;;;7.18;;
49590;SDS011;35496;-21.974;-46.800;2024-03-02T04:34:17;8.55;;;7.43;;
49590;SDS011;35496;-21.974;-46.800;2024-03-02T04:36:43;7.40;;;6.80;;
49590;SDS011;35496;-21.974;-46.800;2024-03-02T04:39:10;9.13;;;6.65;;
49590;SDS011;35496;-21.974;-46.800;2024-03-02T04:41:36;7.55;;;6.50;;
49590;SDS011;35496;-21.974;-46.800;2024-03-02T04:44:03;8.25;;;7.20;;
49590;SDS011;35496;-21.974;-46.800;2024-03-02T04:46:29;6.93;;;5.57;;
49590;SDS011;35496;-21.974;-46.800;2024-03-02T04:48:57;7.00;;;6.28;;
49590;SDS011;35496;-21.974;-46.800;2024-03-02T04:51:23;7.80;;;6.68;;
49590;SDS011;35496;-21.974;-46.800;2024-03-02T04:53:50;9.75;;;6.72;;
49590;SDS011;35496;-21.974;-46.800;2024-03-02T04:56:16;9.75;;;7.18;;
49590;SDS011;35496;-21.974;-46.800;2024-03-02T04:59:05;13.70;;;7.55;;
49590;SDS011;35496;-21.974;-46.800;2024-03-02T05:01:32;13.82;;;7.43;;
49590;SDS011;35496;-21.974;-46.800;2024-03-02T05:03:59;9.25;;;5.78;;
49590;SDS011;35496;-21.974;-46.800;2024-03-02T05:06:25;15.43;;;8.13;;
49590;SDS011;35496;-21.974;-46.800;2024-03-02T05:08:52;6.72;;;6.13;;
49590;SDS011;35496;-21.974;-46.800;2024-03-02T05:11:18;10.63;;;7.60;;
49590;SDS011;35496;-21.974;-46.800;2024-03-02T05:14:17;11.45;;;6.90;;
49590;SDS011;35496;-21.974;-46.800;2024-03-02T05:16:43;13.00;;;7.05;;
49590;SDS011;35496;-21.974;-46.800;2024-03-02T05:19:10;13.65;;;7.13;;
49590;SDS011;35496;-21.974;-46.800;2024-03-02T05:21:36;9.05;;;6.13;;
49590;SDS011;35496;-21.974;-46.800;2024-03-02T05:24:03;8.02;;;7.22;;
49590;SDS011;35496;-21.974;-46.800;2024-03-02T05:26:30;7.40;;;5.97;;
49590;SDS011;35496;-21.974;-46.800;2024-03-02T05:28:56;6.72;;;6.13;;
49590;SDS011;35496;-21.974;-46.800;2024-03-02T05:31:23;7.90;;;7.10;;
49590;SDS011;35496;-21.974;-46.800;2024-03-02T05:33:49;10.35;;;7.55;;
49590;SDS011;35496;-21.974;-46.800;2024-03-02T05:36:17;7.93;;;7.10;;
49590;SDS011;35496;-21.974;-46.800;2024-03-02T05:38:44;10.38;;;8.25;;
49590;SDS011;35496;-21.974;-46.800;2024-03-02T05:41:11;7.60;;;6.90;;
49590;SDS011;35496;-21.974;-46.800;2024-03-02T05:43:37;8.30;;;6.95;;
49590;SDS011;35496;-21.974;-46.800;2024-03-02T05:46:04;8.70;;;7.65;;
49590;SDS011;35496;-21.974;-46.800;2024-03-02T05:48:30;10.18;;;7.18;;
49590;SDS011;35496;-21.974;-46.800;2024-03-02T05:50:57;6.93;;;6.22;;
49590;SDS011;35496;-21.974;-46.800;2024-03-02T05:53:24;8.18;;;6.60;;
49590;SDS011;35496;-21.974;-46.800;2024-03-02T05:55:51;7.38;;;6.68;;
49590;SDS011;35496;-21.974;-46.800;2024-03-02T05:58:21;7.30;;;6.53;;
49590;SDS011;35496;-21.974;-46.800;2024-03-02T06:00:48;10.13;;;7.25;;
49590;SDS011;35496;-21.974;-46.800;2024-03-02T06:03:14;10.52;;;7.70;;
49590;SDS011;35496;-21.974;-46.800;2024-03-02T06:05:41;7.90;;;7.20;;
49590;SDS011;35496;-21.974;-46.800;2024-03-02T06:08:07;7.60;;;6.85;;
49590;SDS011;35496;-21.974;-46.800;2024-03-02T06:10:34;9.52;;;5.93;;
49590;SDS011;35496;-21.974;-46.800;2024-03-02T06:13:01;7.97;;;7.15;;
49590;SDS011;35496;-21.974;-46.800;2024-03-02T06:15:27;10.00;;;7.15;;
49590;SDS011;35496;-21.974;-46.800;2024-03-02T06:17:54;8.95;;;6.53;;
49590;SDS011;35496;-21.974;-46.800;2024-03-02T06:20:20;7.85;;;7.07;;
49590;SDS011;35496;-21.974;-46.800;2024-03-02T06:22:47;8.85;;;6.85;;
49590;SDS011;35496;-21.974;-46.800;2024-03-02T06:25:13;6.60;;;6.03;;
49590;SDS011;35496;-21.974;-46.800;2024-03-02T06:27:40;6.60;;;5.47;;
49590;SDS011;35496;-21.974;-46.800;2024-03-02T06:30:06;9.90;;;7.55;;
49590;SDS011;35496;-21.974;-46.800;2024-03-02T06:32:34;7.70;;;6.25;;
49590;SDS011;35496;-21.974;-46.800;2024-03-02T06:35:00;9.00;;;8.00;;
49590;SDS011;35496;-21.974;-46.800;2024-03-02T06:37:27;12.57;;;6.53;;
49590;SDS011;35496;-21.974;-46.800;2024-03-02T06:39:53;8.27;;;6.45;;
49590;SDS011;35496;-21.974;-46.800;2024-03-02T06:42:20;8.82;;;7.75;;
49590;SDS011;35496;-21.974;-46.800;2024-03-02T06:44:46;9.38;;;7.50;;
49590;SDS011;35496;-21.974;-46.800;2024-03-02T06:47:13;8.00;;;7.20;;
49590;SDS011;35496;-21.974;-46.800;2024-03-02T06:49:42;8.10;;;7.20;;
49590;SDS011;35496;-21.974;-46.800;2024-03-02T06:52:08;9.32;;;8.43;;
49590;SDS011;35496;-21.974;-46.800;2024-03-02T06:54:36;8.70;;;7.47;;
49590;SDS011;35496;-21.974;-46.800;2024-03-02T06:57:02;8.50;;;7.20;;
49590;SDS011;35496;-21.974;-46.800;2024-03-02T06:59:29;8.95;;;7.57;;
49590;SDS011;35496;-21.974;-46.800;2024-03-02T07:01:56;10.40;;;7.68;;
49590;SDS011;35496;-21.974;-46.800;2024-03-02T07:04:22;6.90;;;6.20;;
49590;SDS011;35496;-21.974;-46.800;2024-03-02T07:06:49;8.57;;;6.88;;
49590;SDS011;35496;-21.974;-46.800;2024-03-02T07:09:16;9.73;;;6.78;;
49590;SDS011;35496;-21.974;-46.800;2024-03-02T07:11:43;8.52;;;7.68;;
49590;SDS011;35496;-21.974;-46.800;2024-03-02T07:14:09;7.53;;;6.28;;
49590;SDS011;35496;-21.974;-46.800;2024-03-02T07:16:37;7.70;;;6.78;;
49590;SDS011;35496;-21.974;-46.800;2024-03-02T07:19:05;10.20;;;7.97;;
49590;SDS011;35496;-21.974;-46.800;2024-03-02T07:21:32;9.48;;;7.85;;
49590;SDS011;35496;-21.974;-46.800;2024-03-02T07:23:58;10.65;;;7.70;;
49590;SDS011;35496;-21.974;-46.800;2024-03-02T07:26:28;11.65;;;8.02;;
49590;SDS011;35496;-21.974;-46.800;2024-03-02T07:28:56;10.02;;;7.57;;
49590;SDS011;35496;-21.974;-46.800;2024-03-02T07:31:23;11.70;;;7.72;;
49590;SDS011;35496;-21.974;-46.800;2024-03-02T07:33:50;10.48;;;6.82;;
49590;SDS011;35496;-21.974;-46.800;2024-03-02T07:36:16;7.88;;;7.07;;
49590;SDS011;35496;-21.974;-46.800;2024-03-02T07:38:44;7.35;;;6.40;;
49590;SDS011;35496;-21.974;-46.800;2024-03-02T07:41:11;7.15;;;6.45;;
49590;SDS011;35496;-21.974;-46.800;2024-03-02T07:43:38;8.02;;;7.22;;
49590;SDS011;35496;-21.974;-46.800;2024-03-02T07:46:06;7.80;;;7.05;;
49590;SDS011;35496;-21.974;-46.800;2024-03-02T07:48:33;11.50;;;7.90;;
49590;SDS011;35496;-21.974;-46.800;2024-03-02T07:50:59;8.75;;;6.30;;
49590;SDS011;35496;-21.974;-46.800;2024-03-02T07:53:27;9.40;;;6.82;;
49590;SDS011;35496;-21.974;-46.800;2024-03-02T07:55:54;6.40;;;5.60;;
49590;SDS011;35496;-21.974;-46.800;2024-03-02T07:58:22;6.88;;;6.20;;
49590;SDS011;35496;-21.974;-46.800;2024-03-02T08:00:48;10.27;;;7.38;;
49590;SDS011;35496;-21.974;-46.800;2024-03-02T08:03:15;10.93;;;6.65;;
49590;SDS011;35496;-21.974;-46.800;2024-03-02T08:05:42;9.40;;;7.80;;
49590;SDS011;35496;-21.974;-46.800;2024-03-02T08:08:08;8.23;;;7.40;;
49590;SDS011;35496;-21.974;-46.800;2024-03-02T08:10:35;7.50;;;6.88;;
49590;SDS011;35496;-21.974;-46.800;2024-03-02T08:13:02;9.73;;;8.23;;
49590;SDS011;35496;-21.974;-46.800;2024-03-02T08:15:28;11.02;;;7.80;;
49590;SDS011;35496;-21.974;-46.800;2024-03-02T08:17:55;8.75;;;7.40;;
49590;SDS011;35496;-21.974;-46.800;2024-03-02T08:20:21;8.30;;;7.38;;
49590;SDS011;35496;-21.974;-46.800;2024-03-02T08:22:48;8.95;;;7.18;;
49590;SDS011;35496;-21.974;-46.800;2024-03-02T08:25:14;8.45;;;7.47;;
49590;SDS011;35496;-21.974;-46.800;2024-03-02T08:27:42;8.60;;;6.88;;
49590;SDS011;35496;-21.974;-46.800;2024-03-02T08:30:09;10.38;;;6.95;;
49590;SDS011;35496;-21.974;-46.800;2024-03-02T08:32:36;9.52;;;8.52;;
49590;SDS011;35496;-21.974;-46.800;2024-03-02T08:35:02;9.63;;;8.70;;
49590;SDS011;35496;-21.974;-46.800;2024-03-02T08:37:29;7.68;;;6.97;;
49590;SDS011;35496;-21.974;-46.800;2024-03-02T08:39:56;17.20;;;8.68;;
49590;SDS011;35496;-21.974;-46.800;2024-03-02T08:42:23;6.78;;;6.15;;
49590;SDS011;35496;-21.974;-46.800;2024-03-02T08:44:49;7.95;;;6.38;;
49590;SDS011;35496;-21.974;-46.800;2024-03-02T08:47:16;8.35;;;7.30;;
49590;SDS011;35496;-21.974;-46.800;2024-03-02T08:49:43;7.55;;;6.75;;
49590;SDS011;35496;-21.974;-46.800;2024-03-02T08:52:09;10.25;;;7.88;;
49590;SDS011;35496;-21.974;-46.800;2024-03-02T08:54:36;10.65;;;9.20;;
49590;SDS011;35496;-21.974;-46.800;2024-03-02T08:57:03;10.88;;;7.53;;
49590;SDS011;35496;-21.974;-46.800;2024-03-02T08:59:29;8.25;;;6.82;;
49590;SDS011;35496;-21.974;-46.800;2024-03-02T09:01:57;10.23;;;7.28;;
49590;SDS011;35496;-21.974;-46.800;2024-03-02T09:04:23;11.02;;;8.02;;
49590;SDS011;35496;-21.974;-46.800;2024-03-02T09:06:50;7.72;;;7.03;;
49590;SDS011;35496;-21.974;-46.800;2024-03-02T09:09:17;11.05;;;8.85;;
49590;SDS011;35496;-21.974;-46.800;2024-03-02T09:11:43;10.13;;;7.82;;
49590;SDS011;35496;-21.974;-46.800;2024-03-02T09:14:11;10.95;;;9.05;;
49590;SDS011;35496;-21.974;-46.800;2024-03-02T09:16:40;11.48;;;8.85;;
49590;SDS011;35496;-21.974;-46.800;2024-03-02T09:19:06;13.88;;;8.68;;
49590;SDS011;35496;-21.974;-46.800;2024-03-02T09:21:33;14.70;;;9.68;;
49590;SDS011;35496;-21.974;-46.800;2024-03-02T09:24:00;13.55;;;9.35;;
49590;SDS011;35496;-21.974;-46.800;2024-03-02T09:26:27;17.10;;;12.27;;
49590;SDS011;35496;-21.974;-46.800;2024-03-02T09:28:54;19.27;;;13.63;;
49590;SDS011;35496;-21.974;-46.800;2024-03-02T09:31:21;18.25;;;15.52;;
49590;SDS011;35496;-21.974;-46.800;2024-03-02T09:33:47;17.95;;;14.38;;
49590;SDS011;35496;-21.974;-46.800;2024-03-02T09:36:18;19.88;;;13.75;;
49590;SDS011;35496;-21.974;-46.800;2024-03-02T09:38:48;20.38;;;14.13;;
49590;SDS011;35496;-21.974;-46.800;2024-03-02T09:41:14;17.45;;;13.90;;
49590;SDS011;35496;-21.974;-46.800;2024-03-02T09:43:41;20.92;;;15.00;;
49590;SDS011;35496;-21.974;-46.800;2024-03-02T09:46:08;24.23;;;16.10;;
49590;SDS011;35496;-21.974;-46.800;2024-03-02T09:48:36;19.00;;;14.32;;
49590;SDS011;35496;-21.974;-46.800;2024-03-02T09:51:04;19.63;;;13.90;;
49590;SDS011;35496;-21.974;-46.800;2024-03-02T09:53:31;18.65;;;13.90;;
49590;SDS011;35496;-21.974;-46.800;2024-03-02T09:56:02;17.05;;;13.88;;
49590;SDS011;35496;-21.974;-46.800;2024-03-02T09:58:32;18.42;;;13.80;;
49590;SDS011;35496;-21.974;-46.800;2024-03-02T10:00:59;21.25;;;11.82;;
49590;SDS011;35496;-21.974;-46.800;2024-03-02T10:03:25;14.43;;;11.02;;
49590;SDS011;35496;-21.974;-46.800;2024-03-02T10:06:30;17.80;;;12.80;;
49590;SDS011;35496;-21.974;-46.800;2024-03-02T10:08:56;12.45;;;9.48;;
49590;SDS011;35496;-21.974;-46.800;2024-03-02T10:11:27;12.75;;;10.27;;
49590;SDS011;35496;-21.974;-46.800;2024-03-02T10:14:18;10.48;;;8.63;;
49590;SDS011;35496;-21.974;-46.800;2024-03-02T10:16:45;9.93;;;8.93;;
49590;SDS011;35496;-21.974;-46.800;2024-03-02T10:19:15;12.77;;;9.40;;
49590;SDS011;35496;-21.974;-46.800;2024-03-02T10:21:46;10.88;;;7.57;;
49590;SDS011;35496;-21.974;-46.800;2024-03-02T10:24:17;14.55;;;7.97;;
49590;SDS011;35496;-21.974;-46.800;2024-03-02T10:26:47;8.90;;;7.75;;
49590;SDS011;35496;-21.974;-46.800;2024-03-02T10:29:15;9.10;;;7.78;;
49590;SDS011;35496;-21.974;-46.800;2024-03-02T10:31:42;8.70;;;7.80;;
49590;SDS011;35496;-21.974;-46.800;2024-03-02T10:34:11;8.60;;;7.57;;
49590;SDS011;35496;-21.974;-46.800;2024-03-02T10:36:42;6.95;;;6.32;;
49590;SDS011;35496;-21.974;-46.800;2024-03-02T10:39:11;11.65;;;7.72;;
49590;SDS011;35496;-21.974;-46.800;2024-03-02T10:41:39;10.38;;;8.23;;
49590;SDS011;35496;-21.974;-46.800;2024-03-02T10:44:06;8.00;;;7.18;;
49590;SDS011;35496;-21.974;-46.800;2024-03-02T10:46:35;10.80;;;7.22;;
49590;SDS011;35496;-21.974;-46.800;2024-03-02T10:49:03;9.32;;;7.20;;
49590;SDS011;35496;-21.974;-46.800;2024-03-02T10:51:31;8.02;;;7.32;;
49590;SDS011;35496;-21.974;-46.800;2024-03-02T10:54:01;6.60;;;6.00;;
49590;SDS011;35496;-21.974;-46.800;2024-03-02T10:59:18;10.65;;;7.45;;
49590;SDS011;35496;-21.974;-46.800;2024-03-02T11:01:50;8.98;;;7.30;;
49590;SDS011;35496;-21.974;-46.800;2024-03-02T11:04:24;12.25;;;7.55;;
49590;SDS011;35496;-21.974;-46.800;2024-03-02T11:06:52;8.23;;;7.43;;
49590;SDS011;35496;-21.974;-46.800;2024-03-02T11:09:24;7.90;;;6.05;;
49590;SDS011;35496;-21.974;-46.800;2024-03-02T11:11:56;7.88;;;6.93;;
49590;SDS011;35496;-21.974;-46.800;2024-03-02T11:14:30;7.38;;;6.68;;
49590;SDS011;35496;-21.974;-46.800;2024-03-02T11:16:58;8.52;;;7.72;;
49590;SDS011;35496;-21.974;-46.800;2024-03-02T11:19:26;9.32;;;6.47;;
49590;SDS011;35496;-21.974;-46.800;2024-03-02T11:21:53;7.97;;;7.28;;
49590;SDS011;35496;-21.974;-46.800;2024-03-02T11:26:53;10.68;;;8.38;;
49590;SDS011;35496;-21.974;-46.800;2024-03-02T11:32:02;7.78;;;6.82;;
49590;SDS011;35496;-21.974;-46.800;2024-03-02T11:34:30;6.95;;;6.38;;
49590;SDS011;35496;-21.974;-46.800;2024-03-02T11:37:03;6.93;;;6.20;;
49590;SDS011;35496;-21.974;-46.800;2024-03-02T11:39:30;8.20;;;6.90;;
49590;SDS011;35496;-21.974;-46.800;2024-03-02T11:41:57;9.88;;;7.03;;
49590;SDS011;35496;-21.974;-46.800;2024-03-02T11:44:27;8.68;;;6.55;;
49590;SDS011;35496;-21.974;-46.800;2024-03-02T11:47:00;6.38;;;5.82;;
49590;SDS011;35496;-21.974;-46.800;2024-03-02T11:49:41;7.57;;;6.05;;
49590;SDS011;35496;-21.974;-46.800;2024-03-02T11:52:09;13.63;;;7.43;;
49590;SDS011;35496;-21.974;-46.800;2024-03-02T11:54:37;6.97;;;6.32;;
49590;SDS011;35496;-21.974;-46.800;2024-03-02T11:57:15;6.45;;;5.57;;
49590;SDS011;35496;-21.974;-46.800;2024-03-02T11:59:48;13.48;;;7.25;;
49590;SDS011;35496;-21.974;-46.800;2024-03-02T12:02:20;7.78;;;6.45;;
49590;SDS011;35496;-21.974;-46.800;2024-03-02T12:04:48;8.48;;;6.00;;
49590;SDS011;35496;-21.974;-46.800;2024-03-02T12:07:18;7.13;;;6.63;;
49590;SDS011;35496;-21.974;-46.800;2024-03-02T12:09:49;6.75;;;6.07;;
49590;SDS011;35496;-21.974;-46.800;2024-03-02T12:12:25;6.45;;;5.85;;
49590;SDS011;35496;-21.974;-46.800;2024-03-02T12:14:52;5.90;;;5.32;;
49590;SDS011;35496;-21.974;-46.800;2024-03-02T12:17:21;9.40;;;7.18;;
49590;SDS011;35496;-21.974;-46.800;2024-03-02T12:22:53;6.82;;;6.22;;
49590;SDS011;35496;-21.974;-46.800;2024-03-02T12:25:22;6.65;;;5.97;;
49590;SDS011;35496;-21.974;-46.800;2024-03-02T12:27:59;8.07;;;7.10;;
49590;SDS011;35496;-21.974;-46.800;2024-03-02T12:30:30;12.18;;;7.35;;
49590;SDS011;35496;-21.974;-46.800;2024-03-02T12:32:58;9.85;;;8.00;;
49590;SDS011;35496;-21.974;-46.800;2024-03-02T12:35:25;8.88;;;8.00;;
49590;SDS011;35496;-21.974;-46.800;2024-03-02T12:37:53;9.18;;;6.50;;
49590;SDS011;35496;-21.974;-46.800;2024-03-02T12:40:20;8.25;;;5.57;;
49590;SDS011;35496;-21.974;-46.800;2024-03-02T12:42:48;18.83;;;6.60;;
49590;SDS011;35496;-21.974;-46.800;2024-03-02T12:45:15;11.07;;;7.40;;
49590;SDS011;35496;-21.974;-46.800;2024-03-02T12:47:49;6.40;;;5.90;;
49590;SDS011;35496;-21.974;-46.800;2024-03-02T12:50:17;10.20;;;6.18;;
49590;SDS011;35496;-21.974;-46.800;2024-03-02T12:52:43;17.98;;;6.57;;
49590;SDS011;35496;-21.974;-46.800;2024-03-02T12:55:16;10.90;;;7.70;;
49590;SDS011;35496;-21.974;-46.800;2024-03-02T12:57:42;6.38;;;5.88;;
49590;SDS011;35496;-21.974;-46.800;2024-03-02T13:00:10;6.07;;;5.55;;
49590;SDS011;35496;-21.974;-46.800;2024-03-02T13:02:41;7.22;;;6.53;;
49590;SDS011;35496;-21.974;-46.800;2024-03-02T13:05:08;7.60;;;6.85;;
49590;SDS011;35496;-21.974;-46.800;2024-03-02T13:07:38;8.98;;;6.55;;
49590;SDS011;35496;-21.974;-46.800;2024-03-02T13:10:06;10.05;;;6.22;;
49590;SDS011;35496;-21.974;-46.800;2024-03-02T13:12:34;12.30;;;6.85;;
49590;SDS011;35496;-21.974;-46.800;2024-03-02T13:15:02;8.65;;;6.68;;
49590;SDS011;35496;-21.974;-46.800;2024-03-02T13:17:29;6.43;;;5.90;;
49590;SDS011;35496;-21.974;-46.800;2024-03-02T13:19:57;9.63;;;6.57;;
49590;SDS011;35496;-21.974;-46.800;2024-03-02T13:22:25;7.32;;;6.55;;
49590;SDS011;35496;-21.974;-46.800;2024-03-02T13:24:52;6.82;;;5.53;;
49590;SDS011;35496;-21.974;-46.800;2024-03-02T13:27:23;9.60;;;6.03;;
49590;SDS011;35496;-21.974;-46.800;2024-03-02T13:29:49;10.25;;;5.95;;
49590;SDS011;35496;-21.974;-46.800;2024-03-02T13:32:16;7.22;;;6.15;;
49590;SDS011;35496;-21.974;-46.800;2024-03-02T13:34:46;8.73;;;6.20;;
49590;SDS011;35496;-21.974;-46.800;2024-03-02T13:37:12;6.88;;;6.28;;
49590;SDS011;35496;-21.974;-46.800;2024-03-02T13:39:39;8.50;;;6.75;;
49590;SDS011;35496;-21.974;-46.800;2024-03-02T13:42:07;6.50;;;5.88;;
49590;SDS011;35496;-21.974;-46.800;2024-03-02T13:44:34;7.95;;;5.50;;
49590;SDS011;35496;-21.974;-46.800;2024-03-02T13:47:01;6.68;;;6.03;;
49590;SDS011;35496;-21.974;-46.800;2024-03-02T13:49:28;8.10;;;6.00;;
49590;SDS011;35496;-21.974;-46.800;2024-03-02T13:52:05;6.75;;;4.30;;
49590;SDS011;35496;-21.974;-46.800;2024-03-02T13:54:44;11.93;;;6.18;;
49590;SDS011;35496;-21.974;-46.800;2024-03-02T13:57:12;7.85;;;6.43;;
49590;SDS011;35496;-21.974;-46.800;2024-03-02T13:59:40;7.72;;;6.22;;
49590;SDS011;35496;-21.974;-46.800;2024-03-02T14:02:07;13.07;;;6.18;;
49590;SDS011;35496;-21.974;-46.800;2024-03-02T14:04:34;5.35;;;4.93;;
49590;SDS011;35496;-21.974;-46.800;2024-03-02T14:07:02;7.53;;;5.05;;
49590;SDS011;35496;-21.974;-46.800;2024-03-02T14:09:29;6.63;;;5.25;;
49590;SDS011;35496;-21.974;-46.800;2024-03-02T14:11:56;6.10;;;5.22;;
49590;SDS011;35496;-21.974;-46.800;2024-03-02T14:14:23;6.13;;;5.53;;
49590;SDS011;35496;-21.974;-46.800;2024-03-02T14:16:49;5.45;;;4.72;;
49590;SDS011;35496;-21.974;-46.800;2024-03-02T14:19:16;7.85;;;4.88;;
49590;SDS011;35496;-21.974;-46.800;2024-03-02T14:21:42;6.30;;;4.55;;
49590;SDS011;35496;-21.974;-46.800;2024-03-02T14:24:09;5.32;;;4.63;;
49590;SDS011;35496;-21.974;-46.800;2024-03-02T14:26:36;4.65;;;4.30;;
49590;SDS011;35496;-21.974;-46.800;2024-03-02T14:29:03;7.28;;;5.68;;